Mary D, Pennsylvania
Current Conditions -  °F | °C
As of 6:55 AM on Thursday 27 Nov 2014 (Local Time) from KHZL Reporting Station
Light Snow Light Snow  
Wind Chill: 23°   Ceiling: 700
Heat Index: 28°   Visibility: 7mi
Dew Point: 28°   Wind: 5mph
Humidity: 100%   Direction: 280°W
Pressure: 29.96"   Gusts: NA
Location:  40.76°N, 76.06°W
Report Text: KHZL 271155Z AUTO 28004KT 7SM -SN BKN007 OVC013 M02/M02 A2996 RMK AO2
Loading
Personal Weather Stations






























Interactive Weather Map New forecast layout! Learn more

10-Day Weather Forecast

Advertisements
Track Severe Weather on mobile